Troy, Ohio
Current Conditions -  °F | °C
As of 1:56 PM on Friday 24 Oct 2014 (Local Time) from KDAY Reporting Station
Clear Clear  
Wind Chill: 64°   Ceiling: Unl
Heat Index: 64°   Visibility: 10mi
Dew Point: 39°   Wind: 0mph
Humidity: 40%   Direction: NA
Pressure: 30.08"   Gusts: NA
Location:  40.04°N, 84.2°W
Report Text: KDAY 241756Z 00000KT 10SM CLR 18/04 A3008 RMK AO2 SLP184 T01780039 10178 20044 58015
Loading
Personal Weather Stations






























Interactive Weather Map
Tropical Storm Tracking
New forecast layout! Learn more

10-Day Weather Forecast

Advertisements
Track Severe Weather on mobile